createdAt,value
2018-07-15T00:00:14.388Z,13.93
2018-07-15T00:01:14.319Z,13.99
2018-07-15T00:02:14.961Z,13.91
2018-07-15T00:03:14.267Z,13.83
2018-07-15T00:04:14.242Z,13.87
2018-07-15T00:05:14.508Z,13.87
2018-07-15T00:06:14.191Z,13.90
2018-07-15T00:07:14.161Z,13.88
2018-07-15T00:08:14.953Z,13.88
2018-07-15T00:09:14.174Z,13.84
2018-07-15T00:10:14.081Z,13.83
2018-07-15T00:11:14.059Z,13.86
2018-07-15T00:12:14.031Z,13.78
2018-07-15T00:13:14.004Z,13.79
2018-07-15T00:14:14.507Z,13.72
2018-07-15T00:15:13.952Z,13.75
2018-07-15T00:16:13.926Z,13.79
2018-07-15T00:17:13.901Z,13.79
2018-07-15T00:18:14.000Z,13.73
2018-07-15T00:19:13.852Z,13.68
2018-07-15T00:20:13.829Z,13.65
2018-07-15T00:21:13.791Z,13.69
2018-07-15T00:22:14.453Z,13.65
2018-07-15T00:23:13.780Z,13.60
2018-07-15T00:24:13.712Z,13.57
2018-07-15T00:25:14.010Z,13.54
2018-07-15T00:26:13.658Z,13.50
2018-07-15T00:27:13.636Z,13.48
2018-07-15T00:28:14.460Z,13.45
2018-07-15T00:29:14.464Z,13.42
2018-07-15T00:30:13.602Z,13.40
2018-07-15T00:31:13.532Z,13.48
2018-07-15T00:32:14.457Z,13.44
2018-07-15T00:33:13.474Z,13.40
2018-07-15T00:34:13.489Z,13.42
2018-07-15T00:35:13.956Z,13.28
2018-07-15T00:36:13.390Z,13.29
2018-07-15T00:37:13.411Z,13.39
2018-07-15T00:38:13.957Z,13.40
2018-07-15T00:39:13.313Z,13.39
2018-07-15T00:40:13.332Z,13.37
2018-07-15T00:41:13.263Z,13.39
2018-07-15T00:42:13.509Z,13.29
2018-07-15T00:43:13.208Z,13.31
2018-07-15T00:44:13.183Z,13.29
2018-07-15T00:45:13.151Z,13.35
2018-07-15T00:46:13.978Z,13.36
2018-07-15T00:47:13.144Z,13.29
2018-07-15T00:48:13.073Z,13.25
2018-07-15T00:49:13.961Z,13.27
2018-07-15T00:50:13.019Z,13.24
2018-07-15T00:51:12.990Z,13.20
2018-07-15T00:52:13.019Z,13.14
2018-07-15T00:53:12.938Z,13.16
2018-07-15T00:54:12.911Z,13.21
2018-07-15T00:55:13.473Z,13.21
2018-07-15T00:56:12.861Z,13.13
2018-07-15T00:57:13.008Z,13.09
2018-07-15T00:58:12.809Z,13.11
2018-07-15T00:59:12.793Z,13.14
2018-07-15T01:00:12.797Z,13.10
2018-07-15T01:01:13.460Z,13.11
2018-07-15T01:02:12.739Z,13.16
2018-07-15T01:03:12.672Z,13.09
2018-07-15T01:04:12.654Z,13.13
2018-07-15T01:05:12.619Z,13.07
2018-07-15T01:06:13.465Z,13.13
2018-07-15T01:07:12.710Z,13.14
2018-07-15T01:08:12.538Z,13.03
2018-07-15T01:09:12.516Z,12.98
2018-07-15T01:10:13.461Z,13.02
2018-07-15T01:11:12.456Z,13.06
2018-07-15T01:12:12.473Z,12.98
2018-07-15T01:13:12.402Z,12.92
2018-07-15T01:14:12.967Z,12.92
2018-07-15T01:15:12.354Z,13.06
2018-07-15T01:16:12.960Z,12.89
2018-07-15T01:17:12.339Z,12.91
2018-07-15T01:18:12.312Z,12.94
2018-07-15T01:19:12.246Z,12.92
2018-07-15T01:20:12.969Z,12.91
2018-07-15T01:21:12.187Z,12.98
2018-07-15T01:22:12.161Z,12.81
2018-07-15T01:23:12.180Z,12.86
2018-07-15T01:24:12.963Z,12.80
2018-07-15T01:25:12.079Z,12.84
2018-07-15T01:26:12.054Z,12.70
2018-07-15T01:27:12.029Z,12.71
2018-07-15T01:28:12.044Z,12.74
2018-07-15T01:29:12.519Z,12.74
2018-07-15T01:30:11.953Z,12.76
2018-07-15T01:31:11.919Z,12.77
2018-07-15T01:32:12.465Z,12.80
2018-07-15T01:33:11.869Z,12.77
2018-07-15T01:34:12.021Z,12.73
2018-07-15T01:35:11.809Z,12.73
2018-07-15T01:36:11.840Z,12.66
2018-07-15T01:37:12.469Z,12.70
2018-07-15T01:38:11.729Z,12.66
2018-07-15T01:39:11.699Z,12.71
2018-07-15T01:40:12.484Z,12.69
2018-07-15T01:41:11.705Z,12.71
2018-07-15T01:42:11.618Z,12.66
2018-07-15T01:43:12.468Z,12.65
2018-07-15T01:44:11.569Z,12.65
2018-07-15T01:45:12.467Z,12.69
2018-07-15T01:46:11.550Z,12.66
2018-07-15T01:47:11.492Z,12.66
2018-07-15T01:48:11.969Z,12.61
2018-07-15T01:49:11.472Z,12.66
2018-07-15T01:50:11.402Z,12.63
2018-07-15T01:51:11.376Z,12.65
2018-07-15T01:52:11.405Z,12.62
2018-07-15T01:53:11.325Z,12.56
2018-07-15T01:54:11.294Z,12.58
2018-07-15T01:55:11.268Z,12.48
2018-07-15T01:56:11.248Z,12.53
2018-07-15T01:57:11.526Z,12.51
2018-07-15T01:58:11.187Z,12.47
2018-07-15T01:59:11.207Z,12.44
2018-07-15T02:00:11.132Z,12.48
2018-07-15T02:01:11.971Z,12.48
2018-07-15T02:02:11.080Z,12.44
2018-07-15T02:03:11.109Z,12.47
2018-07-15T02:04:11.969Z,12.40
2018-07-15T02:05:10.996Z,12.45
2018-07-15T02:06:10.970Z,12.41
2018-07-15T02:07:11.032Z,12.41
2018-07-15T02:08:10.911Z,12.36
2018-07-15T02:09:10.891Z,12.40
2018-07-15T02:10:11.499Z,12.31
2018-07-15T02:11:10.841Z,12.40
2018-07-15T02:12:10.850Z,12.33
2018-07-15T02:13:11.472Z,12.34
2018-07-15T02:14:10.800Z,12.33
2018-07-15T02:15:10.720Z,12.38
2018-07-15T02:16:10.703Z,12.33
2018-07-15T02:17:10.673Z,12.37
2018-07-15T02:18:11.473Z,12.33
2018-07-15T02:19:10.658Z,12.40
2018-07-15T02:20:10.631Z,12.43
2018-07-15T02:21:10.564Z,12.45
2018-07-15T02:22:11.477Z,12.45
2018-07-15T02:23:10.505Z,12.48
2018-07-15T02:24:10.529Z,12.51
2018-07-15T02:25:10.450Z,12.55
2018-07-15T02:26:10.431Z,12.48
2018-07-15T02:27:10.401Z,12.53
2018-07-15T02:28:10.980Z,12.53
2018-07-15T02:29:10.386Z,12.51
2018-07-15T02:30:10.357Z,12.51
2018-07-15T02:31:10.974Z,12.47
2018-07-15T02:32:10.300Z,12.44
2018-07-15T02:33:10.232Z,12.52
2018-07-15T02:34:10.990Z,12.44
2018-07-15T02:35:10.219Z,12.43
2018-07-15T02:36:10.149Z,12.36
2018-07-15T02:37:10.122Z,12.43
2018-07-15T02:38:10.098Z,12.43
2018-07-15T02:39:10.977Z,12.38
2018-07-15T02:40:10.088Z,12.36
2018-07-15T02:41:10.012Z,12.26
2018-07-15T02:42:09.984Z,12.29
2018-07-15T02:43:09.957Z,12.33
2018-07-15T02:44:10.481Z,12.41
2018-07-15T02:45:09.966Z,12.41
2018-07-15T02:46:09.875Z,12.29
2018-07-15T02:47:10.478Z,12.36
2018-07-15T02:48:09.864Z,12.28
2018-07-15T02:49:09.800Z,12.29
2018-07-15T02:50:10.028Z,12.26
2018-07-15T02:51:09.783Z,12.26
2018-07-15T02:52:09.716Z,12.11
2018-07-15T02:53:10.478Z,12.16
2018-07-15T02:54:09.659Z,12.19
2018-07-15T02:55:09.633Z,12.18
2018-07-15T02:56:09.662Z,12.22
2018-07-15T02:57:10.497Z,12.28
2018-07-15T02:58:09.554Z,12.15
2018-07-15T02:59:10.479Z,12.23
2018-07-15T03:00:09.492Z,12.15
2018-07-15T03:01:09.524Z,12.18
2018-07-15T03:02:09.446Z,12.19
2018-07-15T03:03:09.982Z,12.18
2018-07-15T03:04:09.388Z,12.15
2018-07-15T03:05:09.365Z,12.13
2018-07-15T03:06:09.532Z,12.15
2018-07-15T03:07:09.349Z,12.11
2018-07-15T03:08:09.282Z,12.13
2018-07-15T03:09:09.982Z,12.13
2018-07-15T03:10:09.221Z,12.05
2018-07-15T03:11:09.198Z,12.11
2018-07-15T03:12:09.211Z,12.22
2018-07-15T03:13:09.140Z,12.11
2018-07-15T03:14:09.108Z,12.11
2018-07-15T03:15:09.982Z,12.13
2018-07-15T03:16:09.062Z,12.11
2018-07-15T03:17:09.105Z,12.08
2018-07-15T03:18:09.005Z,12.16
2018-07-15T03:19:08.972Z,12.20
2018-07-15T03:20:08.945Z,12.15
2018-07-15T03:21:08.972Z,12.23
2018-07-15T03:22:08.933Z,12.26
2018-07-15T03:23:09.487Z,12.23
2018-07-15T03:24:08.851Z,12.37
2018-07-15T03:25:08.808Z,12.41
2018-07-15T03:26:09.484Z,12.37
2018-07-15T03:27:08.810Z,12.40
2018-07-15T03:28:09.485Z,12.45
2018-07-15T03:29:08.698Z,12.47
2018-07-15T03:30:08.670Z,12.55
2018-07-15T03:31:08.673Z,12.56
2018-07-15T03:32:08.674Z,12.65
2018-07-15T03:33:08.591Z,12.69
2018-07-15T03:34:08.644Z,12.71
2018-07-15T03:35:09.489Z,12.73
2018-07-15T03:36:08.511Z,12.69
2018-07-15T03:37:08.531Z,12.88
2018-07-15T03:38:08.502Z,12.81
2018-07-15T03:39:08.985Z,12.86
2018-07-15T03:40:08.400Z,12.89
2018-07-15T03:41:08.486Z,12.89
2018-07-15T03:42:08.345Z,12.98
2018-07-15T03:43:08.362Z,13.02
2018-07-15T03:44:08.291Z,13.06
2018-07-15T03:45:08.304Z,13.17
2018-07-15T03:46:08.240Z,13.20
2018-07-15T03:47:08.994Z,13.27
2018-07-15T03:48:08.231Z,13.27
2018-07-15T03:49:08.204Z,13.27
2018-07-15T03:50:08.131Z,13.39
2018-07-15T03:51:08.990Z,13.40
2018-07-15T03:52:08.081Z,13.39
2018-07-15T03:53:08.093Z,13.54
2018-07-15T03:54:08.066Z,13.55
2018-07-15T03:55:08.003Z,13.62
2018-07-15T03:56:07.980Z,13.70
2018-07-15T03:57:08.496Z,13.72
2018-07-15T03:58:07.920Z,13.79
2018-07-15T03:59:07.942Z,13.83
2018-07-15T04:00:07.875Z,13.90
2018-07-15T04:01:07.840Z,13.91
2018-07-15T04:02:07.812Z,13.97
2018-07-15T04:03:08.492Z,13.97
2018-07-15T04:04:07.813Z,13.91
2018-07-15T04:05:07.788Z,14.01
2018-07-15T04:06:08.492Z,14.02
2018-07-15T04:07:07.681Z,14.11
2018-07-15T04:08:07.653Z,14.16
2018-07-15T04:09:07.634Z,14.19
2018-07-15T04:10:08.043Z,14.24
2018-07-15T04:11:07.579Z,14.21
2018-07-15T04:12:08.495Z,14.30
2018-07-15T04:13:07.525Z,14.39
2018-07-15T04:14:08.496Z,14.45
2018-07-15T04:15:07.531Z,14.46
2018-07-15T04:16:07.448Z,14.49
2018-07-15T04:17:07.426Z,14.56
2018-07-15T04:18:07.996Z,14.71
2018-07-15T04:19:07.368Z,14.70
2018-07-15T04:20:07.397Z,14.86
2018-07-15T04:21:08.042Z,14.82
2018-07-15T04:22:07.339Z,14.85
2018-07-15T04:23:07.289Z,15.00
2018-07-15T04:24:07.995Z,14.95
2018-07-15T04:25:07.212Z,15.02
2018-07-15T04:26:07.234Z,15.01
2018-07-15T04:27:07.543Z,15.16
2018-07-15T04:28:07.146Z,15.23
2018-07-15T04:29:07.125Z,15.38
2018-07-15T04:30:07.996Z,15.33
2018-07-15T04:31:07.096Z,15.40
2018-07-15T04:32:07.093Z,15.43
2018-07-15T04:33:07.008Z,15.55
2018-07-15T04:34:07.498Z,15.60
2018-07-15T04:35:06.957Z,15.73
2018-07-15T04:36:07.497Z,15.71
2018-07-15T04:37:06.970Z,15.74
2018-07-15T04:38:06.883Z,15.80
2018-07-15T04:39:06.859Z,15.91
2018-07-15T04:40:07.502Z,15.95
2018-07-15T04:41:06.808Z,16.02
2018-07-15T04:42:06.828Z,16.02
2018-07-15T04:43:06.802Z,16.13
2018-07-15T04:44:07.503Z,16.13
2018-07-15T04:45:06.710Z,16.25
2018-07-15T04:46:06.689Z,16.33
2018-07-15T04:47:07.504Z,16.44
2018-07-15T04:48:06.680Z,16.44
2018-07-15T04:49:06.612Z,16.52
2018-07-15T04:50:07.526Z,16.62
2018-07-15T04:51:06.558Z,16.67
2018-07-15T04:52:06.539Z,16.72
2018-07-15T04:53:07.057Z,16.69
2018-07-15T04:54:06.492Z,16.76
2018-07-15T04:55:07.007Z,16.67
2018-07-15T04:56:06.453Z,16.77
2018-07-15T04:57:07.001Z,16.80
2018-07-15T04:58:06.437Z,16.82
2018-07-15T04:59:06.372Z,16.95
2018-07-15T05:00:06.571Z,17.09
2018-07-15T05:01:06.317Z,17.03
2018-07-15T05:02:06.373Z,17.12
2018-07-15T05:03:06.318Z,17.12
2018-07-15T05:04:06.264Z,17.17
2018-07-15T05:05:06.241Z,17.15
2018-07-15T05:06:06.213Z,17.13
2018-07-15T05:07:06.179Z,17.27
2018-07-15T05:08:06.194Z,17.30
2018-07-15T05:09:07.009Z,17.39
2018-07-15T05:10:06.105Z,17.43
2018-07-15T05:11:06.081Z,17.52
2018-07-15T05:12:06.103Z,17.50
2018-07-15T05:13:07.004Z,17.49
2018-07-15T05:14:06.054Z,17.49
2018-07-15T05:15:05.986Z,17.52
2018-07-15T05:16:05.965Z,17.65
2018-07-15T05:17:05.991Z,17.74
2018-07-15T05:18:05.916Z,17.80
2018-07-15T05:19:05.905Z,17.81
2018-07-15T05:20:05.874Z,17.80
2018-07-15T05:21:05.846Z,17.83
2018-07-15T05:22:05.886Z,17.83
2018-07-15T05:23:05.812Z,17.83
2018-07-15T05:24:05.785Z,17.80
2018-07-15T05:25:05.767Z,17.94
2018-07-15T05:26:05.734Z,17.99
2018-07-15T05:27:06.069Z,18.06
2018-07-15T05:28:05.694Z,18.13
2018-07-15T05:29:05.667Z,18.11
2018-07-15T05:30:06.520Z,18.26
2018-07-15T05:31:05.619Z,18.34
2018-07-15T05:32:06.069Z,18.38
2018-07-15T05:33:05.570Z,18.49
2018-07-15T05:34:05.564Z,18.39
2018-07-15T05:35:06.598Z,18.44
2018-07-15T05:36:05.504Z,18.49
2018-07-15T05:37:05.525Z,18.63
2018-07-15T05:38:05.594Z,18.61
2018-07-15T05:39:05.434Z,18.61
2018-07-15T05:40:05.417Z,18.65
2018-07-15T05:41:05.392Z,18.66
2018-07-15T05:42:05.372Z,18.63
2018-07-15T05:43:05.392Z,18.50
2018-07-15T05:44:05.325Z,18.53
2018-07-15T05:45:06.014Z,18.69
2018-07-15T05:46:05.278Z,18.72
2018-07-15T05:47:05.264Z,18.74
2018-07-15T05:48:05.571Z,18.76
2018-07-15T05:49:06.023Z,19.00
2018-07-15T05:50:05.190Z,19.16
2018-07-15T05:51:07.010Z,19.28
2018-07-15T05:52:05.188Z,19.28
2018-07-15T05:53:05.169Z,19.47
2018-07-15T05:54:05.105Z,19.46
2018-07-15T05:55:05.081Z,19.50
2018-07-15T05:56:05.066Z,19.50
2018-07-15T05:57:05.051Z,19.57
2018-07-15T05:58:05.172Z,19.60
2018-07-15T05:59:04.993Z,19.68
2018-07-15T06:00:04.976Z,19.83
2018-07-15T06:01:04.957Z,19.95
2018-07-15T06:02:04.929Z,20.02
2018-07-15T06:03:04.966Z,20.05
2018-07-15T06:04:04.887Z,20.02
2018-07-15T06:05:04.870Z,19.97
2018-07-15T06:06:04.847Z,19.85
2018-07-15T06:07:04.824Z,19.70
2018-07-15T06:08:04.876Z,19.56
2018-07-15T06:09:04.781Z,19.53
2018-07-15T06:10:04.761Z,19.55
2018-07-15T06:11:04.738Z,19.52
2018-07-15T06:12:04.719Z,19.43
2018-07-15T06:13:04.749Z,19.47
2018-07-15T06:14:04.673Z,19.27
2018-07-15T06:15:04.651Z,19.25
2018-07-15T06:16:04.630Z,19.23
2018-07-15T06:17:04.650Z,19.13
2018-07-15T06:18:04.676Z,19.12
2018-07-15T06:19:04.570Z,18.93
2018-07-15T06:20:04.541Z,18.96
2018-07-15T06:21:05.430Z,18.99
2018-07-15T06:22:04.499Z,18.91
2018-07-15T06:23:04.534Z,18.86
2018-07-15T06:24:04.456Z,18.78
2018-07-15T06:25:04.430Z,18.76
2018-07-15T06:26:04.412Z,18.86
2018-07-15T06:27:04.386Z,18.82
2018-07-15T06:28:04.408Z,18.87
2018-07-15T06:29:04.389Z,18.78
2018-07-15T06:30:04.317Z,18.66
2018-07-15T06:31:04.310Z,18.66
2018-07-15T06:32:04.274Z,18.65
2018-07-15T06:33:04.251Z,18.53
2018-07-15T06:34:04.274Z,18.51
2018-07-15T06:35:04.251Z,18.61
2018-07-15T06:36:04.182Z,18.60
2018-07-15T06:37:04.159Z,18.61
2018-07-15T06:38:04.140Z,18.57
2018-07-15T06:39:04.114Z,18.66
2018-07-15T06:40:04.165Z,18.65
2018-07-15T06:41:04.117Z,18.65
2018-07-15T06:42:04.046Z,18.69
2018-07-15T06:43:04.023Z,18.72
2018-07-15T06:44:04.002Z,18.72
2018-07-15T06:45:03.977Z,18.69
2018-07-15T06:46:04.005Z,18.75
2018-07-15T06:47:03.929Z,18.84
2018-07-15T06:48:03.921Z,18.81
2018-07-15T06:49:03.889Z,18.81
2018-07-15T06:50:03.867Z,18.81
2018-07-15T06:51:03.886Z,18.78
2018-07-15T06:52:03.867Z,18.86
2018-07-15T06:53:03.797Z,18.86
2018-07-15T06:54:03.842Z,18.78
2018-07-15T06:55:03.751Z,18.76
2018-07-15T06:56:03.784Z,18.81
2018-07-15T06:57:03.750Z,18.84
2018-07-15T06:58:03.687Z,18.79
2018-07-15T06:59:03.654Z,18.79
2018-07-15T07:00:03.641Z,18.79
2018-07-15T07:01:03.637Z,18.71
2018-07-15T07:02:03.619Z,18.79
2018-07-15T07:03:03.603Z,18.84
2018-07-15T07:04:03.537Z,18.93
2018-07-15T07:05:03.515Z,18.97
2018-07-15T07:06:03.493Z,18.96
2018-07-15T07:07:03.467Z,18.94
2018-07-15T07:08:03.488Z,19.05
2018-07-15T07:09:03.465Z,18.96
2018-07-15T07:10:03.402Z,19.05
2018-07-15T07:11:03.373Z,18.99
2018-07-15T07:12:03.359Z,19.00
2018-07-15T07:13:03.388Z,19.00
2018-07-15T07:14:03.424Z,19.00
2018-07-15T07:15:03.289Z,18.94
2018-07-15T07:16:03.284Z,18.97
2018-07-15T07:17:03.283Z,19.09
2018-07-15T07:18:03.216Z,19.05
2018-07-15T07:19:03.209Z,19.00
2018-07-15T07:20:03.219Z,19.00
2018-07-15T07:21:03.149Z,19.02
2018-07-15T07:22:03.121Z,19.16
2018-07-15T07:23:03.591Z,19.09
2018-07-15T07:24:03.193Z,19.02
2018-07-15T07:25:03.048Z,19.06
2018-07-15T07:26:03.027Z,19.15
2018-07-15T07:27:03.009Z,19.23
2018-07-15T07:28:02.980Z,19.16
2018-07-15T07:29:03.015Z,19.24
2018-07-15T07:30:02.935Z,19.15
2018-07-15T07:31:02.911Z,19.12
2018-07-15T07:32:02.940Z,19.13
2018-07-15T07:33:02.875Z,19.15
2018-07-15T07:34:02.899Z,19.20
2018-07-15T07:35:02.817Z,19.19
2018-07-15T07:36:02.794Z,19.27
2018-07-15T07:37:02.792Z,19.31
2018-07-15T07:38:02.791Z,19.43
2018-07-15T07:39:02.729Z,19.57
2018-07-15T07:40:02.702Z,19.64
2018-07-15T07:41:02.728Z,19.70
2018-07-15T07:42:02.656Z,19.57
2018-07-15T07:43:02.632Z,19.63
2018-07-15T07:44:02.612Z,19.65
2018-07-15T07:45:02.588Z,19.61
2018-07-15T07:46:02.613Z,19.60
2018-07-15T07:47:02.674Z,19.63
2018-07-15T07:48:03.045Z,19.65
2018-07-15T07:49:02.497Z,19.82
2018-07-15T07:50:02.474Z,19.98
2018-07-15T07:51:02.494Z,20.02
2018-07-15T07:52:02.434Z,20.08
2018-07-15T07:53:03.045Z,20.16
2018-07-15T07:54:02.383Z,20.12
2018-07-15T07:55:02.398Z,20.20
2018-07-15T07:56:02.346Z,20.27
2018-07-15T07:57:02.342Z,20.30
2018-07-15T07:58:03.044Z,20.37
2018-07-15T07:59:02.313Z,20.46
2018-07-15T08:00:02.255Z,20.48
2018-07-15T08:01:02.228Z,20.46
2018-07-15T08:02:02.261Z,20.53
2018-07-15T08:03:02.182Z,20.48
2018-07-15T08:04:02.214Z,20.49
2018-07-15T08:05:02.140Z,20.49
2018-07-15T08:06:02.118Z,20.53
2018-07-15T08:07:02.094Z,20.37
2018-07-15T08:08:02.608Z,20.41
2018-07-15T08:09:02.051Z,20.27
2018-07-15T08:10:02.027Z,20.25
2018-07-15T08:11:02.063Z,20.22
2018-07-15T08:12:01.982Z,20.20
2018-07-15T08:13:02.553Z,20.25
2018-07-15T08:14:01.939Z,20.04
2018-07-15T08:15:01.920Z,20.04
2018-07-15T08:16:01.950Z,20.12
2018-07-15T08:17:01.874Z,20.35
2018-07-15T08:18:02.552Z,20.49
2018-07-15T08:19:01.829Z,20.64
2018-07-15T08:20:01.815Z,20.86
2018-07-15T08:21:01.830Z,21.22
2018-07-15T08:22:01.766Z,21.45
2018-07-15T08:23:02.558Z,21.53
2018-07-15T08:24:01.765Z,21.46
2018-07-15T08:25:01.753Z,21.37
2018-07-15T08:26:02.555Z,21.33
2018-07-15T08:27:01.656Z,21.25
2018-07-15T08:28:02.641Z,21.12
2018-07-15T08:29:01.669Z,21.08
2018-07-15T08:30:01.592Z,21.21
2018-07-15T08:31:01.571Z,21.19
2018-07-15T08:32:01.549Z,21.19
2018-07-15T08:33:02.057Z,21.16
2018-07-15T08:34:01.609Z,21.08
2018-07-15T08:35:01.816Z,20.88
2018-07-15T08:36:01.507Z,20.75
2018-07-15T08:37:01.449Z,20.72
2018-07-15T08:38:02.054Z,20.75
2018-07-15T08:39:01.423Z,20.63
2018-07-15T08:40:01.429Z,20.53
2018-07-15T08:41:01.358Z,20.61
2018-07-15T08:42:01.337Z,20.67
2018-07-15T08:43:01.313Z,20.61
2018-07-15T08:44:01.305Z,20.66
2018-07-15T08:45:01.408Z,20.88
2018-07-15T08:46:01.312Z,20.97
2018-07-15T08:47:01.230Z,21.08
2018-07-15T08:48:01.221Z,21.19
2018-07-15T08:49:01.187Z,21.41
2018-07-15T08:50:01.203Z,21.52
2018-07-15T08:51:01.150Z,21.71
2018-07-15T08:52:01.173Z,21.64
2018-07-15T08:53:01.109Z,21.55
2018-07-15T08:54:01.079Z,21.56
2018-07-15T08:55:01.083Z,21.51
2018-07-15T08:56:01.083Z,21.64
2018-07-15T08:57:01.069Z,21.66
2018-07-15T08:58:00.997Z,21.58
2018-07-15T08:59:00.983Z,21.53
2018-07-15T09:00:00.964Z,21.52
2018-07-15T09:01:01.004Z,21.51
2018-07-15T09:02:00.961Z,21.67
2018-07-15T09:03:00.898Z,21.59
2018-07-15T09:04:00.878Z,21.70
2018-07-15T09:05:00.913Z,21.74
2018-07-15T09:06:00.884Z,21.78
2018-07-15T09:07:00.868Z,21.76
2018-07-15T09:08:00.791Z,21.77
2018-07-15T09:09:00.775Z,21.76
2018-07-15T09:10:00.770Z,21.74
2018-07-15T09:11:00.733Z,21.74
2018-07-15T09:12:00.761Z,21.92
2018-07-15T09:13:00.689Z,21.93
2018-07-15T09:14:00.672Z,22.12
2018-07-15T09:15:00.657Z,22.29
2018-07-15T09:16:00.627Z,22.33
2018-07-15T09:17:00.652Z,22.26
2018-07-15T09:18:00.589Z,22.38
2018-07-15T09:19:00.568Z,22.30
2018-07-15T09:20:00.551Z,22.00
2018-07-15T09:21:00.625Z,21.92
2018-07-15T09:22:00.511Z,22.00
2018-07-15T09:23:00.530Z,21.66
2018-07-15T09:24:00.463Z,21.66
2018-07-15T09:25:00.446Z,21.58
2018-07-15T09:26:00.429Z,21.49
2018-07-15T09:27:00.403Z,21.38
2018-07-15T09:28:00.440Z,21.30
2018-07-15T09:29:00.365Z,21.08
2018-07-15T09:30:00.351Z,21.28
2018-07-15T09:31:00.378Z,21.19
2018-07-15T09:32:01.073Z,21.25
2018-07-15T09:33:00.344Z,21.36
2018-07-15T09:34:00.259Z,21.37
2018-07-15T09:35:00.234Z,21.49
2018-07-15T09:36:00.222Z,21.61
2018-07-15T09:37:00.196Z,21.58
2018-07-15T09:38:00.218Z,21.51
2018-07-15T09:39:00.153Z,21.48
2018-07-15T09:40:00.136Z,21.55
2018-07-15T09:41:00.120Z,21.58
2018-07-15T09:42:01.078Z,21.56
2018-07-15T09:43:00.108Z,21.61
2018-07-15T09:44:00.053Z,21.70
2018-07-15T09:45:00.034Z,21.48
2018-07-15T09:46:00.067Z,21.41
2018-07-15T09:46:59.991Z,21.30
2018-07-15T09:48:00.575Z,21.21
2018-07-15T09:48:59.959Z,21.21
2018-07-15T09:49:59.924Z,21.08
2018-07-15T09:50:59.943Z,21.03
2018-07-15T09:51:59.925Z,21.00
2018-07-15T09:53:00.579Z,21.03
2018-07-15T09:53:59.841Z,21.04
2018-07-15T09:54:59.822Z,21.15
2018-07-15T09:55:59.793Z,21.12
2018-07-15T09:56:59.815Z,21.21
2018-07-15T09:58:00.579Z,21.19
2018-07-15T09:58:59.771Z,21.36
2018-07-15T09:59:59.714Z,21.48
2018-07-15T10:00:59.688Z,21.70
2018-07-15T10:01:59.715Z,21.58
2018-07-15T10:03:00.581Z,21.53
2018-07-15T10:03:59.627Z,21.62
2018-07-15T10:04:59.603Z,21.70
2018-07-15T10:05:59.578Z,21.70
2018-07-15T10:06:59.602Z,21.83
2018-07-15T10:07:59.540Z,21.55
2018-07-15T10:08:59.528Z,21.51
2018-07-15T10:09:59.557Z,21.45
2018-07-15T10:10:59.484Z,21.38
2018-07-15T10:11:59.453Z,21.43
2018-07-15T10:12:59.484Z,21.30
2018-07-15T10:13:59.408Z,21.43
2018-07-15T10:14:59.393Z,21.53
2018-07-15T10:15:59.365Z,21.53
2018-07-15T10:16:59.386Z,21.46
2018-07-15T10:17:59.365Z,21.45
2018-07-15T10:18:59.361Z,21.41
2018-07-15T10:19:59.280Z,21.49
2018-07-15T10:20:59.261Z,21.56
2018-07-15T10:21:59.234Z,21.76
2018-07-15T10:22:59.266Z,21.96
2018-07-15T10:23:59.192Z,22.15
2018-07-15T10:24:59.180Z,22.39
2018-07-15T10:25:59.150Z,22.59
2018-07-15T10:26:59.128Z,22.75
2018-07-15T10:27:59.190Z,22.82
2018-07-15T10:28:59.130Z,22.82
2018-07-15T10:29:59.150Z,22.86
2018-07-15T10:30:59.047Z,22.86
2018-07-15T10:31:59.020Z,22.91
2018-07-15T10:32:59.006Z,22.81
2018-07-15T10:33:59.036Z,22.64
2018-07-15T10:34:59.017Z,22.69
2018-07-15T10:35:58.941Z,22.61
2018-07-15T10:36:58.917Z,22.44
2018-07-15T10:37:58.899Z,22.20
2018-07-15T10:38:58.948Z,21.93
2018-07-15T10:39:58.900Z,21.74
2018-07-15T10:40:58.847Z,21.56
2018-07-15T10:41:58.812Z,21.48
2018-07-15T10:42:58.799Z,21.56
2018-07-15T10:43:58.771Z,21.76
2018-07-15T10:44:58.803Z,21.85
2018-07-15T10:45:58.781Z,21.94
2018-07-15T10:46:58.709Z,22.20
2018-07-15T10:47:58.692Z,22.45
2018-07-15T10:48:58.670Z,22.63
2018-07-15T10:49:58.649Z,22.79
2018-07-15T10:50:58.671Z,22.84
2018-07-15T10:51:58.632Z,23.00
2018-07-15T10:52:58.619Z,23.00
2018-07-15T10:53:58.565Z,23.01
2018-07-15T10:54:58.575Z,23.01
2018-07-15T10:55:58.566Z,22.85
2018-07-15T10:56:58.557Z,22.92
2018-07-15T10:57:58.484Z,22.85
2018-07-15T10:58:58.464Z,22.67
2018-07-15T10:59:58.480Z,22.46
2018-07-15T11:00:58.527Z,22.38
2018-07-15T11:01:58.446Z,22.38
2018-07-15T11:02:58.384Z,22.24
2018-07-15T11:03:58.361Z,22.11
2018-07-15T11:04:58.341Z,22.05
2018-07-15T11:05:58.327Z,21.92
2018-07-15T11:06:58.337Z,21.77
2018-07-15T11:07:58.279Z,21.90
2018-07-15T11:08:58.259Z,21.90
2018-07-15T11:09:58.241Z,21.86
2018-07-15T11:10:58.216Z,21.82
2018-07-15T11:11:58.245Z,21.76
2018-07-15T11:12:58.191Z,21.82
2018-07-15T11:13:58.155Z,21.93
2018-07-15T11:14:58.130Z,21.93
2018-07-15T11:15:58.168Z,21.89
2018-07-15T11:16:58.090Z,21.92
2018-07-15T11:17:58.068Z,22.08
2018-07-15T11:18:58.050Z,21.90
2018-07-15T11:19:58.033Z,22.09
2018-07-15T11:20:58.044Z,22.00
2018-07-15T11:21:57.984Z,22.12
2018-07-15T11:22:58.151Z,22.15
2018-07-15T11:23:57.985Z,22.22
2018-07-15T11:24:57.923Z,22.23
2018-07-15T11:25:57.972Z,22.29
2018-07-15T11:26:57.909Z,22.30
2018-07-15T11:27:57.898Z,22.33
2018-07-15T11:28:57.840Z,22.44
2018-07-15T11:29:57.815Z,22.44
2018-07-15T11:30:57.888Z,22.49
2018-07-15T11:31:57.776Z,22.57
2018-07-15T11:32:57.795Z,22.59
2018-07-15T11:33:57.731Z,22.64
2018-07-15T11:34:57.707Z,22.63
2018-07-15T11:35:57.734Z,22.60
2018-07-15T11:36:57.671Z,22.54
2018-07-15T11:37:57.686Z,22.55
2018-07-15T11:38:57.668Z,22.57
2018-07-15T11:39:57.607Z,22.57
2018-07-15T11:40:57.583Z,22.52
2018-07-15T11:41:57.611Z,22.59
2018-07-15T11:42:57.544Z,22.57
2018-07-15T11:43:57.528Z,22.66
2018-07-15T11:44:57.506Z,22.76
2018-07-15T11:45:57.497Z,22.89
2018-07-15T11:46:57.520Z,22.94
2018-07-15T11:47:57.447Z,23.03
2018-07-15T11:48:57.428Z,23.03
2018-07-15T11:49:57.414Z,23.19
2018-07-15T11:50:57.376Z,23.26
2018-07-15T11:51:57.412Z,23.32
2018-07-15T11:52:57.341Z,23.35
2018-07-15T11:53:57.357Z,23.38
2018-07-15T11:54:57.300Z,23.40
2018-07-15T11:55:57.318Z,23.37
2018-07-15T11:56:57.254Z,23.34
2018-07-15T11:57:57.235Z,23.32
2018-07-15T11:58:57.217Z,23.21
2018-07-15T11:59:57.219Z,23.01
2018-07-15T12:00:57.216Z,22.89
2018-07-15T12:01:57.197Z,22.86
2018-07-15T12:02:57.130Z,22.79
2018-07-15T12:03:57.109Z,22.96
2018-07-15T12:04:57.090Z,23.03
2018-07-15T12:05:57.117Z,23.01
2018-07-15T12:06:57.096Z,23.18
2018-07-15T12:07:57.041Z,23.25
2018-07-15T12:08:57.009Z,23.26
2018-07-15T12:09:56.995Z,23.28
2018-07-15T12:10:56.969Z,23.37
2018-07-15T12:11:57.012Z,23.35
2018-07-15T12:12:56.923Z,23.38
2018-07-15T12:13:56.950Z,23.29
2018-07-15T12:14:56.884Z,23.45
2018-07-15T12:15:56.864Z,23.38
2018-07-15T12:16:56.852Z,23.63
2018-07-15T12:17:56.820Z,23.56
2018-07-15T12:18:56.845Z,23.72
2018-07-15T12:19:56.782Z,23.82
2018-07-15T12:20:56.762Z,23.77
2018-07-15T12:21:56.751Z,23.74
2018-07-15T12:22:56.721Z,23.63
2018-07-15T12:23:56.747Z,23.53
2018-07-15T12:24:56.686Z,23.42
2018-07-15T12:25:56.659Z,23.40
2018-07-15T12:26:56.644Z,23.45
2018-07-15T12:27:56.626Z,23.41
2018-07-15T12:28:56.650Z,23.28
2018-07-15T12:29:56.582Z,23.29
2018-07-15T12:30:56.557Z,23.34
2018-07-15T12:31:57.127Z,23.32
2018-07-15T12:32:56.520Z,23.29
2018-07-15T12:33:56.548Z,23.35
2018-07-15T12:34:56.486Z,23.34
2018-07-15T12:35:56.457Z,23.44
2018-07-15T12:36:56.439Z,23.48
2018-07-15T12:37:56.417Z,23.52
2018-07-15T12:38:56.449Z,23.56
2018-07-15T12:39:56.376Z,23.63
2018-07-15T12:40:56.358Z,23.56
2018-07-15T12:41:56.373Z,23.67
2018-07-15T12:42:56.319Z,23.72
2018-07-15T12:43:56.343Z,23.84
2018-07-15T12:44:56.276Z,23.85
2018-07-15T12:45:56.264Z,23.93
2018-07-15T12:46:56.280Z,24.04
2018-07-15T12:47:56.216Z,23.94
2018-07-15T12:48:56.684Z,24.09
2018-07-15T12:49:56.262Z,24.17
2018-07-15T12:50:57.033Z,24.22
2018-07-15T12:51:56.154Z,24.17